Time;durP1;ratioP1;P1;durP2;ratioP2;P2;SDS_P1;SDS_P2;PMS_P1;PMS_P2;Temp;Humidity;BMP_temperature;BMP_pressure;BME280_temperature;BME280_humidity;BME280_pressure;Samples;Min_cycle;Max_cycle;Signal;HPM_P1;HPM_P2
2021/08/17 00:01:21;;;;;;;3.53;2.50;;;12.70;99.90;;;;;;5054589;28;20674;-63
2021/08/17 00:03:47;;;;;;;2.57;1.77;;;12.70;99.90;;;;;;5054470;28;20676;-62
2021/08/17 00:06:13;;;;;;;2.40;2.20;;;12.70;99.90;;;;;;5056628;28;20229;-66
2021/08/17 00:08:38;;;;;;;3.17;2.27;;;12.70;99.90;;;;;;5074055;28;20522;-60
2021/08/17 00:11:04;;;;;;;3.27;2.20;;;12.70;99.90;;;;;;5074473;28;20712;-65
2021/08/17 00:13:30;;;;;;;2.27;2.10;;;12.60;99.90;;;;;;5074536;28;20206;-62
2021/08/17 00:15:55;;;;;;;4.13;2.97;;;12.70;99.90;;;;;;5074524;28;20621;-67
2021/08/17 00:18:21;;;;;;;1.80;1.70;;;12.60;99.90;;;;;;5073663;28;20574;-64
2021/08/17 00:20:47;;;;;;;2.33;2.13;;;12.50;99.90;;;;;;5073992;28;20177;-64
2021/08/17 00:23:13;;;;;;;2.10;1.90;;;12.50;99.90;;;;;;5054353;28;20174;-68
2021/08/17 00:25:42;;;;;;;6.47;3.07;;;12.50;99.90;;;;;;5054235;28;20501;-62
2021/08/17 00:28:09;;;;;;;6.38;2.90;;;12.50;99.90;;;;;;5053638;28;20236;-62
2021/08/17 00:30:35;;;;;;;3.75;2.50;;;12.50;99.90;;;;;;5054185;28;20182;-60
2021/08/17 00:33:00;;;;;;;4.37;3.27;;;12.40;99.90;;;;;;5053920;28;20187;-65
2021/08/17 00:35:26;;;;;;;2.93;2.53;;;12.40;99.90;;;;;;5054307;28;20175;-62
2021/08/17 00:37:52;;;;;;;3.13;2.20;;;12.50;99.90;;;;;;5053449;28;20539;-66
2021/08/17 00:40:18;;;;;;;2.77;2.57;;;12.50;99.90;;;;;;5054009;28;20168;-64
2021/08/17 00:42:47;;;;;;;3.27;2.97;;;12.50;99.90;;;;;;5054125;28;20492;-63
2021/08/17 00:45:17;;;;;;;3.27;2.50;;;12.60;99.90;;;;;;5053852;28;20416;-67
2021/08/17 00:47:43;;;;;;;3.60;1.97;;;12.60;99.90;;;;;;5053425;28;20425;-62
2021/08/17 00:50:09;;;;;;;3.60;2.60;;;12.60;99.90;;;;;;5058667;28;20834;-63
2021/08/17 00:52:35;;;;;;;3.57;3.23;;;12.60;99.90;;;;;;5073400;28;20644;-65
2021/08/17 00:55:00;;;;;;;2.10;1.70;;;12.70;99.90;;;;;;5073665;28;20483;-63
2021/08/17 00:57:26;;;;;;;3.70;2.40;;;12.60;99.90;;;;;;5073171;28;20567;-62
2021/08/17 00:59:52;;;;;;;3.10;2.40;;;12.70;99.90;;;;;;5073616;28;20197;-62
2021/08/17 01:02:17;;;;;;;3.67;2.40;;;12.70;99.90;;;;;;5073807;28;20229;-63
2021/08/17 01:04:43;;;;;;;3.80;2.77;;;12.70;99.90;;;;;;5072958;28;20177;-66
2021/08/17 01:07:09;;;;;;;2.97;2.40;;;12.70;99.90;;;;;;5073311;28;20177;-63
2021/08/17 01:09:35;;;;;;;2.27;2.00;;;12.70;99.90;;;;;;5073548;28;20687;-66
2021/08/17 01:12:01;;;;;;;4.50;2.93;;;12.80;99.90;;;;;;5073569;28;20482;-64
2021/08/17 01:14:27;;;;;;;2.80;2.60;;;12.70;99.90;;;;;;5073444;28;20413;-65
2021/08/17 01:16:53;;;;;;;3.50;2.47;;;12.80;99.90;;;;;;5072894;28;20777;-62
2021/08/17 01:19:20;;;;;;;4.87;2.57;;;12.80;99.90;;;;;;5070328;28;20557;-65
2021/08/17 01:21:47;;;;;;;4.80;3.23;;;12.80;99.90;;;;;;5053462;28;20580;-61
2021/08/17 01:24:13;;;;;;;2.90;2.37;;;12.80;99.90;;;;;;5053263;28;20388;-61
2021/08/17 01:26:38;;;;;;;3.42;2.60;;;12.70;99.90;;;;;;5052947;28;20452;-62
2021/08/17 01:29:07;;;;;;;2.80;2.20;;;12.70;99.90;;;;;;5054195;28;20534;-62
2021/08/17 01:31:33;;;;;;;3.60;2.70;;;12.70;99.90;;;;;;5053213;28;20202;-62
2021/08/17 01:33:59;;;;;;;5.50;2.47;;;12.50;99.90;;;;;;5053152;28;20397;-64
2021/08/17 01:36:24;;;;;;;5.50;2.40;;;12.50;99.90;;;;;;5054473;28;20173;-65
2021/08/17 01:38:51;;;;;;;3.30;2.63;;;12.40;99.90;;;;;;5072868;28;20645;-62
2021/08/17 01:41:18;;;;;;;3.70;3.00;;;12.30;99.90;;;;;;5073259;28;20177;-62
2021/08/17 01:43:45;;;;;;;3.13;2.63;;;12.30;99.90;;;;;;5073242;28;20531;-63
2021/08/17 01:46:11;;;;;;;3.78;2.20;;;12.20;99.90;;;;;;5073272;28;20216;-63
2021/08/17 01:48:38;;;;;;;3.53;2.53;;;12.10;99.90;;;;;;5072702;28;20551;-61
2021/08/17 01:51:04;;;;;;;3.50;2.70;;;12.10;99.90;;;;;;5071281;28;20244;-64
2021/08/17 01:53:30;;;;;;;4.60;2.85;;;12.00;99.90;;;;;;5052937;28;20178;-61
2021/08/17 01:55:58;;;;;;;3.28;2.42;;;12.00;99.90;;;;;;5053051;28;20177;-62
2021/08/17 01:58:24;;;;;;;4.80;3.15;;;11.90;99.90;;;;;;5052309;28;20209;-62
2021/08/17 02:00:50;;;;;;;2.70;2.22;;;11.90;99.90;;;;;;5066327;28;20264;-61
2021/08/17 02:03:16;;;;;;;3.13;2.37;;;11.80;99.90;;;;;;5072807;28;20651;-64
2021/08/17 02:05:42;;;;;;;3.13;2.83;;;11.70;99.90;;;;;;5074865;28;20260;-63
2021/08/17 02:08:09;;;;;;;4.67;3.20;;;11.70;99.90;;;;;;5076359;28;20567;-63
2021/08/17 02:10:35;;;;;;;3.22;2.83;;;11.60;99.90;;;;;;5076525;28;20177;-64
2021/08/17 02:13:01;;;;;;;4.22;3.45;;;11.60;99.90;;;;;;5076691;28;20527;-64
2021/08/17 02:15:26;;;;;;;3.27;2.90;;;11.60;99.90;;;;;;5075839;28;20172;-61
2021/08/17 02:17:52;;;;;;;5.07;4.10;;;11.50;99.90;;;;;;5060770;28;20201;-61
2021/08/17 02:20:18;;;;;;;4.53;2.70;;;11.50;99.90;;;;;;5055307;28;20169;-62
2021/08/17 02:22:43;;;;;;;4.80;3.20;;;11.50;99.90;;;;;;5055492;28;20174;-62
2021/08/17 02:25:09;;;;;;;4.73;3.27;;;11.40;99.90;;;;;;5056625;28;20571;-61
2021/08/17 02:27:36;;;;;;;3.67;2.70;;;11.40;99.90;;;;;;5056214;28;20212;-62
2021/08/17 02:30:04;;;;;;;4.38;2.90;;;11.40;99.90;;;;;;5056294;28;20200;-60
2021/08/17 02:32:30;;;;;;;4.38;3.20;;;11.40;99.90;;;;;;5070323;28;20563;-64
2021/08/17 02:34:56;;;;;;;6.38;2.67;;;11.40;99.90;;;;;;5076354;28;20242;-64
2021/08/17 02:37:22;;;;;;;4.72;2.95;;;11.40;99.90;;;;;;5075771;28;20200;-62
2021/08/17 02:39:48;;;;;;;5.53;3.00;;;11.40;99.90;;;;;;5076049;28;20189;-62
2021/08/17 02:42:13;;;;;;;4.23;2.30;;;11.40;99.90;;;;;;5076045;28;20179;-63
2021/08/17 02:44:39;;;;;;;3.67;2.20;;;11.40;99.90;;;;;;5075803;28;20164;-64
2021/08/17 02:47:05;;;;;;;5.30;3.50;;;11.30;99.90;;;;;;5075698;28;20168;-61
2021/08/17 02:49:32;;;;;;;2.50;1.90;;;11.30;99.90;;;;;;5075839;28;20607;-64
2021/08/17 02:52:00;;;;;;;4.45;3.40;;;11.30;99.90;;;;;;5076038;28;20194;-61
2021/08/17 02:54:26;;;;;;;3.80;3.50;;;11.30;99.90;;;;;;5076002;28;20260;-62
2021/08/17 02:56:52;;;;;;;2.72;2.47;;;11.20;99.90;;;;;;5075450;28;20258;-61
2021/08/17 02:59:17;;;;;;;4.30;3.07;;;11.20;99.90;;;;;;5075833;28;20192;-64
2021/08/17 03:01:43;;;;;;;4.33;3.07;;;11.20;99.90;;;;;;5056412;28;20507;-62
2021/08/17 03:04:09;;;;;;;6.00;2.70;;;11.20;99.90;;;;;;5055887;28;20197;-61
2021/08/17 03:06:34;;;;;;;4.77;3.63;;;11.20;99.90;;;;;;5055397;28;20189;-64
2021/08/17 03:09:00;;;;;;;4.10;3.27;;;11.20;99.90;;;;;;5055844;28;20714;-61
2021/08/17 03:11:26;;;;;;;3.83;2.87;;;11.20;99.90;;;;;;5055801;28;20178;-64
2021/08/17 03:13:52;;;;;;;6.37;3.73;;;11.20;99.90;;;;;;5055622;28;20174;-61
2021/08/17 03:16:17;;;;;;;5.68;3.75;;;11.10;99.90;;;;;;5055515;28;20569;-65
2021/08/17 03:18:43;;;;;;;3.10;2.40;;;11.10;99.90;;;;;;5055037;28;20338;-61
2021/08/17 03:21:08;;;;;;;3.90;3.00;;;11.10;99.90;;;;;;5055397;28;20176;-64
2021/08/17 03:23:34;;;;;;;5.43;2.93;;;11.00;99.90;;;;;;5055492;28;20170;-61
2021/08/17 03:26:00;;;;;;;3.43;2.60;;;11.00;99.90;;;;;;5055274;28;20174;-61
2021/08/17 03:28:26;;;;;;;3.37;2.93;;;11.00;99.90;;;;;;5054958;28;20189;-62
2021/08/17 03:30:51;;;;;;;3.80;2.53;;;11.00;99.90;;;;;;5071026;28;20181;-64
2021/08/17 03:33:17;;;;;;;4.33;3.60;;;11.10;99.90;;;;;;5075342;28;20187;-63
2021/08/17 03:35:43;;;;;;;5.30;3.23;;;11.10;99.90;;;;;;5075159;28;20671;-64
2021/08/17 03:38:09;;;;;;;5.50;2.87;;;11.20;99.90;;;;;;5074681;28;20458;-63
2021/08/17 03:40:35;;;;;;;3.23;2.13;;;11.10;99.90;;;;;;5074957;28;20404;-61
2021/08/17 03:43:00;;;;;;;2.00;1.80;;;11.10;99.90;;;;;;5072339;28;20471;-63
2021/08/17 03:45:26;;;;;;;3.20;2.70;;;11.10;99.90;;;;;;5055221;28;20173;-60
2021/08/17 03:47:52;;;;;;;5.00;4.37;;;11.00;99.90;;;;;;5054498;28;20169;-64
2021/08/17 03:50:19;;;;;;;4.27;3.53;;;11.00;99.90;;;;;;5055095;28;20566;-61
2021/08/17 03:52:45;;;;;;;4.78;2.60;;;11.00;99.90;;;;;;5054969;28;20180;-62
2021/08/17 03:55:12;;;;;;;4.88;3.50;;;11.00;99.90;;;;;;5054960;28;20173;-61
2021/08/17 03:57:37;;;;;;;3.42;2.60;;;11.00;99.90;;;;;;5055268;28;20236;-63
2021/08/17 04:00:06;;;;;;;3.60;2.80;;;11.10;99.90;;;;;;5074844;28;20219;-62
2021/08/17 04:02:32;;;;;;;8.07;2.70;;;11.00;99.90;;;;;;5074708;28;20259;-62
2021/08/17 04:04:57;;;;;;;2.70;2.17;;;10.90;99.90;;;;;;5074830;28;20204;-62
2021/08/17 04:07:23;;;;;;;2.57;1.80;;;10.90;99.90;;;;;;5062533;28;20174;-61
2021/08/17 04:09:49;;;;;;;3.90;3.60;;;10.90;99.90;;;;;;5053059;28;20552;-64
2021/08/17 04:12:14;;;;;;;5.23;2.60;;;10.90;99.90;;;;;;5054691;28;20181;-61
2021/08/17 04:14:40;;;;;;;3.83;3.20;;;10.90;99.90;;;;;;5054633;28;20176;-63
2021/08/17 04:17:06;;;;;;;4.47;3.30;;;10.90;99.90;;;;;;5053884;28;20205;-61
2021/08/17 04:19:31;;;;;;;4.47;3.30;;;10.80;99.90;;;;;;5054182;28;20269;-65
2021/08/17 04:21:57;;;;;;;6.20;3.50;;;10.90;99.90;;;;;;5054261;28;20161;-61
2021/08/17 04:24:23;;;;;;;3.53;3.23;;;10.80;99.90;;;;;;5054354;28;20597;-61
2021/08/17 04:26:48;;;;;;;2.87;2.67;;;10.80;99.90;;;;;;5053875;28;21012;-65
2021/08/17 04:29:14;;;;;;;4.17;2.83;;;10.80;99.90;;;;;;5053445;28;20284;-63
2021/08/17 04:31:39;;;;;;;4.27;3.37;;;10.80;99.90;;;;;;5054269;28;20219;-61
2021/08/17 04:34:05;;;;;;;3.10;2.60;;;10.80;99.90;;;;;;5054254;28;20223;-62
2021/08/17 04:36:31;;;;;;;5.53;3.10;;;10.90;99.90;;;;;;5067283;28;20177;-61
2021/08/17 04:38:56;;;;;;;4.03;3.10;;;10.90;99.90;;;;;;5073717;28;20227;-61
2021/08/17 04:41:22;;;;;;;3.13;2.83;;;10.90;99.90;;;;;;5073800;28;20247;-63
2021/08/17 04:43:47;;;;;;;4.20;3.20;;;10.90;99.90;;;;;;5074062;28;20164;-62
2021/08/17 04:46:14;;;;;;;2.90;2.57;;;10.90;99.90;;;;;;5073903;28;20188;-62
2021/08/17 04:48:39;;;;;;;3.75;3.10;;;10.90;99.90;;;;;;5073446;28;20677;-63
2021/08/17 04:51:05;;;;;;;4.27;2.77;;;11.00;99.90;;;;;;5073398;28;20185;-63
2021/08/17 04:53:30;;;;;;;3.40;3.10;;;11.00;99.90;;;;;;5073652;28;20165;-61
2021/08/17 04:55:56;;;;;;;4.97;3.70;;;11.00;99.90;;;;;;5073740;28;20200;-63
2021/08/17 04:58:22;;;;;;;4.60;2.90;;;11.10;99.90;;;;;;5072072;28;20205;-62
2021/08/17 05:00:48;;;;;;;3.97;2.87;;;11.20;99.90;;;;;;5073647;28;20501;-63
2021/08/17 05:03:14;;;;;;;5.03;3.10;;;11.30;99.90;;;;;;5073494;28;20410;-62
2021/08/17 05:05:40;;;;;;;5.53;3.33;;;11.40;99.90;;;;;;5062108;28;20243;-63
2021/08/17 05:08:09;;;;;;;4.70;4.10;;;11.50;99.90;;;;;;5053239;28;20197;-64
2021/08/17 05:10:35;;;;;;;4.53;2.90;;;11.60;99.90;;;;;;5053426;28;20216;-63
2021/08/17 05:13:03;;;;;;;6.20;4.18;;;11.70;99.90;;;;;;5053667;28;20172;-66
2021/08/17 05:15:32;;;;;;;5.80;3.38;;;11.80;99.90;;;;;;5053572;28;20185;-60
2021/08/17 05:17:58;;;;;;;4.15;2.58;;;11.90;99.90;;;;;;5052813;28;20204;-66
2021/08/17 05:20:24;;;;;;;5.18;3.05;;;12.00;99.90;;;;;;5053441;28;20209;-61
2021/08/17 05:22:49;;;;;;;4.70;3.60;;;12.00;99.90;;;;;;5053173;28;20205;-65
2021/08/17 05:25:16;;;;;;;3.00;2.70;;;12.10;99.90;;;;;;5053184;28;20472;-61
2021/08/17 05:27:42;;;;;;;5.55;2.83;;;12.00;99.90;;;;;;5052915;28;20175;-63
2021/08/17 05:30:09;;;;;;;4.70;3.05;;;12.00;99.90;;;;;;5053218;28;20218;-61
2021/08/17 05:32:35;;;;;;;5.60;2.83;;;12.10;99.90;;;;;;5052900;28;20228;-61
2021/08/17 05:35:01;;;;;;;2.70;2.20;;;12.10;99.90;;;;;;5069465;28;20217;-62
2021/08/17 05:37:26;;;;;;;2.40;2.20;;;12.10;99.90;;;;;;5072711;28;20228;-63
2021/08/17 05:39:52;;;;;;;6.90;3.07;;;12.20;99.90;;;;;;5077102;28;20958;-62
2021/08/17 05:42:18;;;;;;;3.33;2.87;;;12.30;99.90;;;;;;5068920;28;20177;-61
2021/08/17 05:44:44;;;;;;;7.03;2.60;;;12.50;99.90;;;;;;5059804;28;20171;-63
2021/08/17 05:47:11;;;;;;;3.67;3.37;;;12.70;99.90;;;;;;5059284;28;20203;-63
2021/08/17 05:49:37;;;;;;;3.07;2.87;;;12.90;99.90;;;;;;5059371;28;20515;-65
2021/08/17 05:52:09;;;;;;;5.37;3.33;;;13.00;99.90;;;;;;5059518;28;20398;-61
2021/08/17 05:54:35;;;;;;;3.20;2.77;;;13.20;99.90;;;;;;5059644;28;20402;-65
2021/08/17 05:57:01;;;;;;;2.90;2.37;;;13.30;99.90;;;;;;5069160;28;20602;-60
2021/08/17 05:59:30;;;;;;;4.23;2.43;;;13.40;99.90;;;;;;5079531;28;20421;-66
2021/08/17 06:01:58;;;;;;;3.17;2.33;;;13.50;99.90;;;;;;5071519;28;20971;-63
2021/08/17 06:04:25;;;;;;;4.70;2.03;;;13.60;99.90;;;;;;5059304;28;20468;-64
2021/08/17 06:06:51;;;;;;;3.33;2.20;;;13.80;99.90;;;;;;5059331;28;20395;-66
2021/08/17 06:09:20;;;;;;;3.93;2.30;;;13.90;99.90;;;;;;5059457;28;20446;-64
2021/08/17 06:11:49;;;;;;;5.57;3.23;;;14.00;99.90;;;;;;5059540;28;20273;-64
2021/08/17 06:14:15;;;;;;;2.80;2.17;;;14.10;99.90;;;;;;5059448;28;20928;-64
2021/08/17 06:16:42;;;;;;;2.07;1.87;;;14.20;99.90;;;;;;5066231;28;20429;-61
2021/08/17 06:19:08;;;;;;;2.23;2.03;;;14.20;99.90;;;;;;5079350;28;20429;-63
2021/08/17 06:21:35;;;;;;;4.57;2.70;;;14.30;99.90;;;;;;5074530;28;20451;-62
2021/08/17 06:24:02;;;;;;;1.70;1.60;;;14.40;99.90;;;;;;5059370;28;20778;-64
2021/08/17 06:26:28;;;;;;;2.20;2.00;;;14.50;99.90;;;;;;5059334;28;20878;-65
2021/08/17 06:28:54;;;;;;;2.60;2.23;;;14.50;99.90;;;;;;5058924;28;20528;-63
2021/08/17 06:31:23;;;;;;;4.57;3.07;;;14.60;99.90;;;;;;5059220;28;20424;-62
2021/08/17 06:34:00;;;;;;;7.10;1.77;;;14.70;99.90;;;;;;5059228;28;20161;-63
2021/08/17 06:36:26;;;;;;;4.27;2.40;;;14.80;99.90;;;;;;5059192;28;20423;-64
2021/08/17 06:38:52;;;;;;;5.50;2.83;;;14.90;99.90;;;;;;5058161;28;20474;-62
2021/08/17 06:41:17;;;;;;;5.63;2.23;;;14.90;99.90;;;;;;5068834;28;20183;-63
2021/08/17 06:43:44;;;;;;;2.23;2.00;;;15.00;99.90;;;;;;5079056;28;20399;-61
2021/08/17 06:46:10;;;;;;;3.73;2.93;;;15.20;99.90;;;;;;5078839;28;20623;-64
2021/08/17 06:48:37;;;;;;;2.40;2.30;;;15.30;99.90;;;;;;5078581;28;20445;-64
2021/08/17 06:51:03;;;;;;;2.03;1.93;;;15.50;99.90;;;;;;5076422;28;20431;-64
2021/08/17 06:53:28;;;;;;;2.00;1.90;;;15.60;99.90;;;;;;5075966;28;20536;-64
2021/08/17 06:55:54;;;;;;;2.00;1.90;;;15.80;99.90;;;;;;5076026;28;20260;-64
2021/08/17 06:58:20;;;;;;;2.80;2.43;;;16.00;99.90;;;;;;5075356;28;20229;-65
2021/08/17 07:00:47;;;;;;;2.13;1.83;;;16.20;99.90;;;;;;5075777;28;20829;-61
2021/08/17 07:03:14;;;;;;;2.67;2.50;;;16.30;99.90;;;;;;5075933;28;20178;-64
2021/08/17 07:05:42;;;;;;;3.10;1.90;;;16.30;99.90;;;;;;5072186;28;20807;-62
2021/08/17 07:08:08;;;;;;;4.93;2.43;;;16.40;99.90;;;;;;5055252;28;20432;-63
2021/08/17 07:10:35;;;;;;;3.90;2.10;;;16.30;99.90;;;;;;5055754;28;20435;-63
2021/08/17 07:13:00;;;;;;;2.83;2.20;;;16.20;99.90;;;;;;5055574;28;20752;-65
2021/08/17 07:15:26;;;;;;;2.30;2.13;;;16.10;99.90;;;;;;5055750;28;20462;-64
2021/08/17 07:17:52;;;;;;;3.47;3.13;;;16.20;99.90;;;;;;5055025;28;20361;-64
2021/08/17 07:20:18;;;;;;;2.17;1.83;;;16.30;99.90;;;;;;5055626;28;20181;-63
2021/08/17 07:22:44;;;;;;;2.70;2.03;;;16.50;99.90;;;;;;5054165;28;20408;-65
2021/08/17 07:25:10;;;;;;;2.53;2.33;;;16.60;99.90;;;;;;5055511;28;20258;-63
2021/08/17 07:27:36;;;;;;;2.90;2.03;;;16.70;99.90;;;;;;5054950;28;20254;-61
2021/08/17 07:30:04;;;;;;;2.67;2.33;;;16.90;99.90;;;;;;5055295;28;20444;-64
2021/08/17 07:32:30;;;;;;;2.93;2.23;;;16.90;99.90;;;;;;5055160;28;20460;-64
2021/08/17 07:34:56;;;;;;;2.20;2.00;;;17.30;99.90;;;;;;5064206;28;20472;-61
2021/08/17 07:37:21;;;;;;;3.80;2.30;;;18.20;99.90;;;;;;5074612;28;20200;-66
2021/08/17 07:39:47;;;;;;;2.20;1.80;;;19.40;99.90;;;;;;5075205;28;20286;-63
2021/08/17 07:42:12;;;;;;;3.07;1.93;;;20.70;99.90;;;;;;5074833;28;20177;-62
2021/08/17 07:44:38;;;;;;;7.23;2.17;;;21.90;97.80;;;;;;5075012;28;20225;-64
2021/08/17 07:47:04;;;;;;;4.70;2.47;;;22.50;95.40;;;;;;5073380;28;20179;-65
2021/08/17 07:49:30;;;;;;;1.83;1.70;;;22.90;95.80;;;;;;5073198;28;20207;-65
2021/08/17 07:51:56;;;;;;;2.40;2.20;;;23.90;94.50;;;;;;5075062;28;20733;-63
2021/08/17 07:54:22;;;;;;;2.07;1.67;;;24.90;92.50;;;;;;5074864;28;20192;-61
2021/08/17 07:56:48;;;;;;;2.27;1.83;;;25.40;90.90;;;;;;5074424;28;20382;-61
2021/08/17 07:59:14;;;;;;;2.83;2.00;;;26.30;86.40;;;;;;5074516;28;20405;-61
2021/08/17 08:01:39;;;;;;;3.37;2.10;;;26.60;84.50;;;;;;5074640;28;20206;-62
2021/08/17 08:04:05;;;;;;;2.33;2.13;;;26.30;80.80;;;;;;5067245;28;20828;-61
2021/08/17 08:06:31;;;;;;;2.60;2.40;;;25.30;79.60;;;;;;5054301;28;20165;-62
2021/08/17 08:08:56;;;;;;;2.30;1.87;;;24.30;81.40;;;;;;5054233;28;20583;-59
2021/08/17 08:11:23;;;;;;;2.50;2.20;;;23.60;85.40;;;;;;5055392;28;20191;-62
2021/08/17 08:13:48;;;;;;;2.43;2.20;;;23.40;87.90;;;;;;5074300;28;20182;-63
2021/08/17 08:16:14;;;;;;;1.77;1.67;;;24.00;87.80;;;;;;5074356;28;20457;-66
2021/08/17 08:18:40;;;;;;;3.17;2.70;;;24.90;84.90;;;;;;5074042;28;20205;-63
2021/08/17 08:21:06;;;;;;;3.27;3.03;;;25.80;83.70;;;;;;5074399;28;20173;-65
2021/08/17 08:23:31;;;;;;;3.53;2.20;;;26.00;81.50;;;;;;5074335;28;20169;-63
2021/08/17 08:25:57;;;;;;;3.00;2.60;;;25.60;82.30;;;;;;5073440;28;20887;-67
2021/08/17 08:28:23;;;;;;;3.20;2.80;;;24.80;83.00;;;;;;5053773;28;20674;-62
2021/08/17 08:30:49;;;;;;;3.03;2.60;;;23.90;85.30;;;;;;5061089;28;20980;-65
2021/08/17 08:33:14;;;;;;;2.30;2.10;;;23.20;86.90;;;;;;5074275;28;20180;-63
2021/08/17 08:35:40;;;;;;;3.80;2.60;;;22.70;87.00;;;;;;5074191;28;20178;-66
2021/08/17 08:38:06;;;;;;;2.60;2.40;;;22.40;88.20;;;;;;5073376;28;20211;-65
2021/08/17 08:40:33;;;;;;;2.33;2.13;;;22.40;89.00;;;;;;5074109;28;20375;-64
2021/08/17 08:42:59;;;;;;;3.27;2.63;;;22.80;88.20;;;;;;5072195;28;20410;-65
2021/08/17 08:45:24;;;;;;;2.00;1.87;;;23.40;87.30;;;;;;5074293;28;20404;-66
2021/08/17 08:47:50;;;;;;;2.13;2.00;;;24.30;85.20;;;;;;5073367;28;20173;-62
2021/08/17 08:50:16;;;;;;;2.50;2.30;;;24.90;82.50;;;;;;5073973;28;20515;-62
2021/08/17 08:52:42;;;;;;;2.30;2.10;;;25.20;79.80;;;;;;5073793;28;20165;-67
2021/08/17 08:55:10;;;;;;;4.00;2.47;;;25.20;80.30;;;;;;5073818;28;20455;-64
2021/08/17 08:57:36;;;;;;;2.30;2.10;;;25.10;81.20;;;;;;5054727;28;20513;-66
2021/08/17 09:00:03;;;;;;;5.30;3.27;;;24.80;80.20;;;;;;5053579;28;20416;-66
2021/08/17 09:02:31;;;;;;;3.20;2.20;;;24.60;79.80;;;;;;5065644;28;20846;-64
2021/08/17 09:04:59;;;;;;;3.33;2.23;;;24.80;78.90;;;;;;5073674;28;20706;-64
2021/08/17 09:07:42;;;;;;;3.00;2.50;;;25.30;76.80;;;;;;5073388;28;20880;-67
2021/08/17 09:10:12;;;;;;;3.43;2.60;;;25.60;75.00;;;;;;5073160;28;20493;-62
2021/08/17 09:12:44;;;;;;;3.03;2.10;;;26.10;74.00;;;;;;5073538;28;20441;-64
2021/08/17 09:15:22;;;;;;;2.57;2.37;;;26.60;72.40;;;;;;5073121;28;20740;-65
2021/08/17 09:18:07;;;;;;;2.90;2.20;;;27.20;72.30;;;;;;5072861;28;20980;-64
2021/08/17 09:20:43;;;;;;;2.47;2.13;;;27.90;71.20;;;;;;5073741;28;20403;-63
2021/08/17 09:23:29;;;;;;;4.57;3.30;;;28.80;69.10;;;;;;5073614;28;20382;-64
2021/08/17 09:26:19;;;;;;;3.53;3.20;;;29.20;67.40;;;;;;5058044;28;20614;-62
2021/08/17 09:28:52;;;;;;;4.30;2.80;;;29.00;65.00;;;;;;5052683;28;20439;-63
2021/08/17 09:31:51;;;;;;;4.17;3.20;;;28.50;65.10;;;;;;5053198;28;20519;-61
2021/08/17 09:34:18;;;;;;;3.07;2.50;;;28.40;66.00;;;;;;5041469;28;20416;-65
2021/08/17 09:36:45;;;;;;;2.70;2.27;;;28.00;62.20;;;;;;5052540;28;20382;-61
2021/08/17 09:39:23;;;;;;;2.83;2.30;;;28.10;64.50;;;;;;5055354;28;20448;-65
2021/08/17 09:41:48;;;;;;;4.90;2.50;;;27.80;62.50;;;;;;5073350;28;20407;-64
2021/08/17 09:44:19;;;;;;;2.60;2.40;;;27.10;62.10;;;;;;5073015;28;20971;-65
2021/08/17 09:46:44;;;;;;;3.50;2.87;;;26.30;62.60;;;;;;5066444;28;20260;-62
2021/08/17 09:49:16;;;;;;;2.37;2.17;;;25.90;64.70;;;;;;5053171;28;20434;-66
2021/08/17 09:51:42;;;;;;;4.03;2.27;;;25.90;64.50;;;;;;5052806;28;20644;-62
2021/08/17 09:54:16;;;;;;;2.50;2.20;;;25.90;64.80;;;;;;5052877;28;20416;-62
2021/08/17 09:56:43;;;;;;;2.20;2.00;;;25.80;67.20;;;;;;5052527;28;20391;-62
2021/08/17 09:59:17;;;;;;;2.20;1.63;;;25.50;67.70;;;;;;5052758;28;20494;-64
2021/08/17 10:01:43;;;;;;;3.13;2.60;;;25.00;67.20;;;;;;5052858;28;20385;-60
2021/08/17 10:04:09;;;;;;;3.03;2.60;;;24.60;67.70;;;;;;5053008;28;20473;-63
2021/08/17 10:06:35;;;;;;;3.20;2.13;;;24.10;70.90;;;;;;5052228;28;20208;-62
2021/08/17 10:09:01;;;;;;;2.87;2.17;;;23.70;72.00;;;;;;5052609;28;20401;-65
2021/08/17 10:11:27;;;;;;;2.10;1.87;;;23.50;71.20;;;;;;5071382;28;20398;-65
2021/08/17 10:13:54;;;;;;;2.27;1.93;;;23.10;69.70;;;;;;5072848;28;20741;-62
2021/08/17 10:16:20;;;;;;;1.77;1.67;;;22.70;71.80;;;;;;5072899;28;20413;-63
2021/08/17 10:18:46;;;;;;;4.43;2.73;;;22.70;71.40;;;;;;5072229;28;20438;-61
2021/08/17 10:21:16;;;;;;;2.70;2.00;;;22.50;71.40;;;;;;5072843;28;20729;-66
2021/08/17 10:23:44;;;;;;;2.07;1.87;;;22.50;71.90;;;;;;5072702;28;20386;-63
2021/08/17 10:26:25;;;;;;;2.73;2.23;;;22.50;73.10;;;;;;5055945;28;20412;-64
2021/08/17 10:28:51;;;;;;;2.40;2.07;;;22.40;73.30;;;;;;5075788;28;20405;-62
2021/08/17 10:31:18;;;;;;;3.90;1.83;;;22.30;72.80;;;;;;5076313;28;20929;-64
2021/08/17 10:33:54;;;;;;;2.47;2.13;;;22.10;73.80;;;;;;5076280;28;20216;-61
2021/08/17 10:36:38;;;;;;;2.27;2.07;;;22.10;73.10;;;;;;5076355;28;20377;-65
2021/08/17 10:39:26;;;;;;;3.10;2.07;;;22.30;74.40;;;;;;5075788;28;20439;-62
2021/08/17 10:41:54;;;;;;;2.80;1.57;;;22.50;73.20;;;;;;5075958;28;20789;-62
2021/08/17 10:44:29;;;;;;;4.10;2.07;;;22.80;73.90;;;;;;5076230;28;20713;-65
2021/08/17 10:46:57;;;;;;;2.93;1.90;;;23.10;72.40;;;;;;5075841;28;20406;-65
2021/08/17 10:49:33;;;;;;;4.17;2.17;;;23.30;72.20;;;;;;5076045;28;20428;-66
2021/08/17 10:52:04;;;;;;;3.33;2.33;;;23.40;69.90;;;;;;5076112;28;20460;-62
2021/08/17 10:54:30;;;;;;;3.27;1.97;;;23.50;72.00;;;;;;5066988;28;20423;-67
2021/08/17 10:57:12;;;;;;;2.07;1.87;;;23.90;70.20;;;;;;5055445;28;20435;-62
2021/08/17 10:59:43;;;;;;;3.57;1.77;;;24.40;70.10;;;;;;5054363;28;20909;-65
2021/08/17 11:02:10;;;;;;;2.30;1.70;;;25.10;67.80;;;;;;5055892;28;20396;-65
2021/08/17 11:04:39;;;;;;;4.03;2.17;;;25.70;67.40;;;;;;5056110;28;20406;-63
2021/08/17 11:07:22;;;;;;;1.70;1.60;;;26.10;64.80;;;;;;5055367;28;20389;-61
2021/08/17 11:09:48;;;;;;;3.00;2.00;;;26.10;65.40;;;;;;5068507;28;20417;-64
2021/08/17 11:12:14;;;;;;;2.43;2.10;;;25.80;65.40;;;;;;5075612;28;20477;-65
2021/08/17 11:14:41;;;;;;;2.00;1.83;;;25.40;64.20;;;;;;5075517;28;20165;-62
2021/08/17 11:17:12;;;;;;;3.73;1.60;;;25.10;65.20;;;;;;5075023;28;20691;-63
2021/08/17 11:19:42;;;;;;;1.97;1.57;;;24.60;67.30;;;;;;5075389;28;20523;-64
2021/08/17 11:22:10;;;;;;;2.47;2.27;;;24.30;66.80;;;;;;5074118;28;20374;-62
2021/08/17 11:24:36;;;;;;;2.00;1.90;;;23.90;65.80;;;;;;5055629;28;20372;-64
2021/08/17 11:27:07;;;;;;;2.23;1.50;;;23.50;68.90;;;;;;5054802;28;20911;-63
2021/08/17 11:29:42;;;;;;;1.90;1.70;;;23.20;68.40;;;;;;5055168;28;20455;-63
2021/08/17 11:32:32;;;;;;;2.70;1.90;;;23.00;69.60;;;;;;5055334;28;20423;-62
2021/08/17 11:35:05;;;;;;;2.20;1.50;;;22.60;67.50;;;;;;5051926;28;20888;-61
2021/08/17 11:37:33;;;;;;;3.30;2.00;;;22.30;71.40;;;;;;5054356;28;20455;-61
2021/08/17 11:40:00;;;;;;;1.63;1.53;;;22.00;73.00;;;;;;5055019;28;20945;-63
2021/08/17 11:42:28;;;;;;;1.63;1.53;;;21.80;75.70;;;;;;5054972;28;20405;-66
2021/08/17 11:45:04;;;;;;;1.47;1.17;;;21.70;75.10;;;;;;5072538;28;20397;-68
2021/08/17 11:47:30;;;;;;;1.73;1.33;;;21.50;76.70;;;;;;5074112;28;20486;-65
2021/08/17 11:49:58;;;;;;;1.70;1.60;;;21.40;74.10;;;;;;5074578;28;21125;-62
2021/08/17 11:52:26;;;;;;;6.03;1.83;;;21.30;75.00;;;;;;5074816;28;20404;-64
2021/08/17 11:54:56;;;;;;;1.63;1.40;;;21.10;75.40;;;;;;5074197;28;20450;-62
2021/08/17 11:57:46;;;;;;;2.20;1.50;;;21.10;73.00;;;;;;5074331;28;20524;-65
2021/08/17 12:00:23;;;;;;;1.83;1.50;;;21.10;74.90;;;;;;5047162;28;20757;-64
2021/08/17 12:02:55;;;;;;;2.10;1.87;;;21.10;75.20;;;;;;5054873;28;20499;-63
2021/08/17 12:05:22;;;;;;;1.47;1.37;;;21.30;77.10;;;;;;5054522;28;20474;-61
2021/08/17 12:07:50;;;;;;;3.00;2.10;;;21.30;77.40;;;;;;5054085;28;20378;-64
2021/08/17 12:10:22;;;;;;;2.77;1.53;;;21.40;76.90;;;;;;5054608;28;20448;-61
2021/08/17 12:13:11;;;;;;;1.00;0.90;;;21.20;76.70;;;;;;5054803;28;20499;-64
2021/08/17 12:15:56;;;;;;;2.63;1.90;;;21.30;75.50;;;;;;5054402;28;20400;-63
2021/08/17 12:18:31;;;;;;;1.43;1.33;;;21.20;77.00;;;;;;5073226;28;20818;-61
2021/08/17 12:21:03;;;;;;;2.97;2.00;;;21.10;75.30;;;;;;5070622;28;20423;-63
2021/08/17 12:23:37;;;;;;;2.00;1.30;;;21.10;78.10;;;;;;5054274;28;20526;-64
2021/08/17 12:26:14;;;;;;;2.13;1.80;;;21.10;76.90;;;;;;5054119;28;20406;-65
2021/08/17 12:28:42;;;;;;;1.67;1.57;;;21.20;78.00;;;;;;5053841;28;20760;-64
2021/08/17 12:31:38;;;;;;;1.77;1.47;;;21.30;78.70;;;;;;5054331;28;20482;-63
2021/08/17 12:34:04;;;;;;;2.33;1.60;;;21.30;77.60;;;;;;5054015;28;20386;-61
2021/08/17 12:36:41;;;;;;;1.60;1.50;;;21.40;74.90;;;;;;5054285;28;20390;-65
2021/08/17 12:39:17;;;;;;;1.57;1.13;;;21.30;72.40;;;;;;5054082;28;20208;-65
2021/08/17 12:41:58;;;;;;;1.60;1.50;;;21.30;74.00;;;;;;5054068;28;20403;-61
2021/08/17 12:44:25;;;;;;;2.90;1.60;;;21.20;73.10;;;;;;5054094;28;20411;-64
2021/08/17 12:47:11;;;;;;;1.50;1.20;;;21.20;72.70;;;;;;5053403;28;20839;-61
2021/08/17 12:49:51;;;;;;;2.10;2.00;;;21.20;74.10;;;;;;5055544;28;20820;-62
2021/08/17 12:52:41;;;;;;;1.57;1.47;;;21.20;71.80;;;;;;5073509;28;20406;-63